Weather at Melalan Airport

Public forecast

Using degrees Celsius for public forecast. Weather courtesy of forecast.io.

Closest aviation weather report (METAR) to Melalan Airport

Closest report is Sultan Aji Muhammad Sulaiman Sepinggan International Airport, 93.4 nm (173.0 km) SE.

2024/07/24 21:00 (retrieved 15 minutes ago)

WALL 242100Z 22005KT 9000 FEW018CB FEW019 27/27 Q1007 RERA RMK CB TO S

Closest aviation forecast (TAF) to Melalan Airport

Closest forecast is Aji Pangeran Tumenggung Pranoto International Airport, 90.1 nm (166.8 km) E.

2024/07/24 18:00 (retrieved 3 hours ago)

TAF WALL 241700Z 2418/2524 23005KT 9000 SCT019 TAF WALS 241700Z 2418/2506 24003KT 4000 BR FEW015 SCT017 BECMG 2500/2502 9999 NSW SCT019